Time;durP1;ratioP1;P1;durP2;ratioP2;P2;SDS_P1;SDS_P2;PMS_P1;PMS_P2;Temp;Humidity;BMP_temperature;BMP_pressure;BME280_temperature;BME280_humidity;BME280_pressure;Samples;Min_cycle;Max_cycle;Signal;HPM_P1;HPM_P2
2022/10/07 00:01:12;;;;;;;;;;;;;;;20.96;32.26;98982.84;4959801;29;756;-84
2022/10/07 00:03:38;;;;;;;;;;;;;;;20.94;31.87;98968.31;4942591;29;1244;-84
2022/10/07 00:06:04;;;;;;;;;;;;;;;20.65;32.34;98968.53;4958991;29;1094;-84
2022/10/07 00:08:29;;;;;;;;;;;;;;;20.78;32.37;98969.66;4942230;29;803;-84
2022/10/07 00:14:30;;;;;;;;;;;;;;;21.23;32.13;98958.31;4959507;29;1907;-84
2022/10/07 00:16:56;;;;;;;;;;;;;;;21.10;31.89;98964.94;4941887;29;907;-84
2022/10/07 00:19:21;;;;;;;;;;;;;;;20.80;32.26;98963.56;4957939;28;887;-84
2022/10/07 00:21:46;;;;;;;;;;;;;;;20.95;32.16;98970.72;4959137;29;847;-84
2022/10/07 00:24:14;;;;;;;;;;;;;;;20.70;32.67;98959.59;4926663;29;1190;-84
2022/10/07 00:26:40;;;;;;;;;;;;;;;20.54;32.79;98950.84;4942178;29;891;-84
2022/10/07 00:29:05;;;;;;;;;;;;;;;20.49;33.05;98942.81;4942385;29;1128;-84
2022/10/07 00:31:32;;;;;;;;;;;;;;;20.94;31.97;98940.03;4942393;29;1129;-84
2022/10/07 00:33:59;;;;;;;;;;;;;;;21.45;31.78;98941.97;4942362;29;1960;-84
2022/10/07 00:36:25;;;;;;;;;;;;;;;21.45;31.52;98935.47;4942251;29;1123;-85
2022/10/07 00:38:55;;;;;;;;;;;;;;;21.17;32.21;98940.19;4942252;29;1322;-84
2022/10/07 00:41:21;;;;;;;;;;;;;;;20.98;32.35;98940.78;4942446;29;914;-84
2022/10/07 00:43:47;;;;;;;;;;;;;;;20.83;32.19;98944.94;4941684;29;1360;-84
2022/10/07 00:49:54;;;;;;;;;;;;;;;20.75;33.11;98935.72;4958913;29;661;-84
2022/10/07 00:52:19;;;;;;;;;;;;;;;21.10;32.68;98928.94;4941434;29;926;-84
2022/10/07 00:54:45;;;;;;;;;;;;;;;21.18;32.00;98933.31;4958928;29;1978;-83
2022/10/07 00:57:11;;;;;;;;;;;;;;;20.88;32.70;98930.34;4941788;29;724;-84
2022/10/07 00:59:38;;;;;;;;;;;;;;;20.91;32.41;98924.69;4941745;29;776;-84
2022/10/07 01:02:04;;;;;;;;;;;;;;;20.69;32.52;98915.56;4938233;29;919;-84
2022/10/07 01:04:30;;;;;;;;;;;;;;;20.73;32.49;98916.38;4937255;29;819;-84
2022/10/07 01:06:55;;;;;;;;;;;;;;;20.84;32.24;98921.13;4921937;29;1385;-84
2022/10/07 01:09:21;;;;;;;;;;;;;;;20.85;32.48;98919.91;4921749;29;1030;-84
2022/10/07 01:11:52;;;;;;;;;;;;;;;20.72;32.63;98914.72;4899436;29;1207;-84
2022/10/07 01:18:03;;;;;;;;;;;;;;;21.19;32.45;98908.63;4899391;29;923;-84
2022/10/07 01:20:35;;;;;;;;;;;;;;;21.29;32.11;98904.88;4899452;29;962;-84
2022/10/07 01:23:12;;;;;;;;;;;;;;;20.99;32.69;98914.91;4899410;29;1299;-84
2022/10/07 01:25:40;;;;;;;;;;;;;;;20.54;33.14;98916.91;4883845;29;1163;-84
2022/10/07 01:28:07;;;;;;;;;;;;;;;20.65;32.86;98911.16;4883909;29;1105;-84
2022/10/07 01:30:33;;;;;;;;;;;;;;;20.73;32.76;98907.88;4901519;29;1219;-84
2022/10/07 01:33:01;;;;;;;;;;;;;;;21.03;32.92;98900.72;4893568;29;1978;-84
2022/10/07 01:35:29;;;;;;;;;;;;;;;21.36;32.09;98906.88;4884826;29;936;-84
2022/10/07 01:37:56;;;;;;;;;;;;;;;21.06;32.44;98905.53;4853893;29;1302;-84
2022/10/07 01:40:23;;;;;;;;;;;;;;;20.95;32.55;98907.69;4869089;29;1228;-84
2022/10/07 01:42:48;;;;;;;;;;;;;;;21.00;32.08;98904.41;4893825;29;909;-84
2022/10/07 01:45:20;;;;;;;;;;;;;;;20.79;32.77;98909.03;4903327;29;1126;-84
2022/10/07 01:47:49;;;;;;;;;;;;;;;20.78;32.55;98904.59;4898629;29;1140;-84
2022/10/07 01:50:15;;;;;;;;;;;;;;;20.63;33.08;98914.44;4884153;29;1151;-84
2022/10/07 01:52:59;;;;;;;;;;;;;;;20.80;32.50;98904.97;4899669;29;1903;-84
2022/10/07 01:55:27;;;;;;;;;;;;;;;21.03;32.88;98909.19;4899839;29;1130;-84
2022/10/07 02:01:30;;;;;;;;;;;;;;;21.05;32.34;98910.41;4884202;29;971;-84
2022/10/07 02:04:19;;;;;;;;;;;;;;;20.98;32.35;98912.47;4883618;29;1624;-84
2022/10/07 02:06:59;;;;;;;;;;;;;;;20.91;32.25;98896.38;4924477;29;1345;-84
2022/10/07 02:09:31;;;;;;;;;;;;;;;20.89;32.40;98903.69;4922756;29;1222;-84
2022/10/07 02:12:00;;;;;;;;;;;;;;;20.72;32.62;98911.91;4922529;29;1242;-84
2022/10/07 02:14:30;;;;;;;;;;;;;;;20.80;32.46;98907.81;4938543;29;1979;-84
2022/10/07 02:16:56;;;;;;;;;;;;;;;20.85;32.43;98914.25;4938427;29;1194;-84
2022/10/07 02:19:24;;;;;;;;;;;;;;;20.66;32.99;98907.91;4938404;29;1195;-84
2022/10/07 02:21:51;;;;;;;;;;;;;;;20.59;33.07;98913.66;4922370;29;776;-84
2022/10/07 02:24:17;;;;;;;;;;;;;;;20.60;33.08;98903.94;4938198;29;1216;-84
2022/10/07 02:26:42;;;;;;;;;;;;;;;20.75;32.59;98905.41;4938339;29;1244;-84
2022/10/07 02:29:08;;;;;;;;;;;;;;;20.83;33.19;98911.00;4923341;29;745;-84
2022/10/07 02:31:36;;;;;;;;;;;;;;;21.22;32.76;98908.59;4937767;29;1059;-84
2022/10/07 02:34:03;;;;;;;;;;;;;;;21.35;32.25;98906.09;4937791;29;1910;-84
2022/10/07 02:36:30;;;;;;;;;;;;;;;21.21;32.20;98909.03;4937652;29;1221;-84
2022/10/07 02:38:57;;;;;;;;;;;;;;;21.02;32.28;98896.28;4921960;29;1233;-84
2022/10/07 02:41:42;;;;;;;;;;;;;;;20.64;33.02;98896.22;4919456;29;1285;-84
2022/10/07 02:44:31;;;;;;;;;;;;;;;20.70;32.68;98894.56;4920886;29;1158;-84
2022/10/07 02:47:00;;;;;;;;;;;;;;;20.72;32.77;98894.94;4920889;29;1161;-84
2022/10/07 02:49:25;;;;;;;;;;;;;;;20.67;33.03;98898.22;4920972;29;1154;-83
2022/10/07 02:52:17;;;;;;;;;;;;;;;20.73;32.82;98905.06;4920937;29;1243;-84
2022/10/07 02:54:47;;;;;;;;;;;;;;;21.28;32.60;98904.09;4901655;29;1966;-83
2022/10/07 02:57:14;;;;;;;;;;;;;;;21.45;32.12;98901.50;4897973;29;1131;-84
2022/10/07 02:59:39;;;;;;;;;;;;;;;21.07;32.54;98907.13;4884494;29;1174;-83
2022/10/07 03:02:06;;;;;;;;;;;;;;;20.90;32.80;98905.31;4883962;29;1252;-84
2022/10/07 03:04:31;;;;;;;;;;;;;;;20.99;32.21;98908.44;4884470;29;1209;-83
2022/10/07 03:06:57;;;;;;;;;;;;;;;20.94;32.17;98906.06;4884194;29;1276;-83
2022/10/07 03:09:24;;;;;;;;;;;;;;;20.91;32.15;98906.91;4884119;29;1281;-84
2022/10/07 03:11:49;;;;;;;;;;;;;;;20.68;32.70;98905.50;4885163;29;1279;-84
2022/10/07 03:14:15;;;;;;;;;;;;;;;20.97;33.26;98905.22;4899634;29;1906;-83
2022/10/07 03:16:40;;;;;;;;;;;;;;;21.13;32.73;98908.28;4915989;29;1288;-84
2022/10/07 03:19:07;;;;;;;;;;;;;;;20.97;32.47;98905.22;4892338;29;1295;-84
2022/10/07 03:21:41;;;;;;;;;;;;;;;20.70;33.18;98896.59;4915054;29;1106;-83
2022/10/07 03:24:07;;;;;;;;;;;;;;;20.69;32.64;98895.78;4899238;29;1299;-83
2022/10/07 03:26:39;;;;;;;;;;;;;;;20.82;32.43;98904.53;4914848;29;1294;-83
2022/10/07 03:29:04;;;;;;;;;;;;;;;20.60;32.86;98903.94;4900429;29;1288;-83
2022/10/07 03:31:30;;;;;;;;;;;;;;;20.63;32.85;98908.78;4904146;29;1083;-83
2022/10/07 03:33:58;;;;;;;;;;;;;;;21.13;33.13;98908.28;4904158;29;1978;-83
2022/10/07 03:36:24;;;;;;;;;;;;;;;21.46;32.23;98898.25;4938631;29;885;-83
2022/10/07 03:38:49;;;;;;;;;;;;;;;21.50;31.88;98899.03;4933006;29;1140;-82
2022/10/07 03:41:15;;;;;;;;;;;;;;;21.39;32.00;98903.19;4922246;29;1276;-82
2022/10/07 03:43:41;;;;;;;;;;;;;;;21.02;32.70;98901.94;4908136;29;1295;-83
2022/10/07 03:46:09;;;;;;;;;;;;;;;20.94;32.64;98901.22;4888966;29;1295;-83
2022/10/07 03:48:36;;;;;;;;;;;;;;;20.75;32.56;98908.25;4882497;29;1245;-83
2022/10/07 03:51:02;;;;;;;;;;;;;;;20.85;32.51;98902.91;4870863;29;1111;-83
2022/10/07 03:53:29;;;;;;;;;;;;;;;20.57;32.96;98904.75;4900323;29;1910;-83
2022/10/07 03:55:57;;;;;;;;;;;;;;;20.51;32.97;98907.22;4900590;29;1127;-83
2022/10/07 03:58:23;;;;;;;;;;;;;;;20.73;32.66;98902.22;4901115;29;1197;-83
2022/10/07 04:00:49;;;;;;;;;;;;;;;20.71;32.82;98901.81;4900456;29;1273;-83
2022/10/07 04:06:49;;;;;;;;;;;;;;;20.76;32.67;98914.72;4898794;29;886;-82
2022/10/07 04:09:14;;;;;;;;;;;;;;;20.65;32.72;98914.00;4898666;29;1145;-83
2022/10/07 04:11:40;;;;;;;;;;;;;;;20.55;32.83;98918.50;4898486;29;1225;-83
2022/10/07 04:14:07;;;;;;;;;;;;;;;20.87;33.47;98908.94;4898551;29;1915;-83
2022/10/07 04:16:33;;;;;;;;;;;;;;;21.22;33.00;98917.09;4910091;29;1111;-83
2022/10/07 04:18:59;;;;;;;;;;;;;;;21.07;32.56;98904.31;4939540;29;1145;-83
2022/10/07 04:21:27;;;;;;;;;;;;;;;21.02;32.48;98910.44;4939044;29;1378;-83
2022/10/07 04:23:52;;;;;;;;;;;;;;;20.91;32.73;98906.91;4939098;29;1109;-83
2022/10/07 04:26:18;;;;;;;;;;;;;;;20.91;32.46;98913.34;4939015;29;1094;-83
2022/10/07 04:28:47;;;;;;;;;;;;;;;20.74;32.57;98915.13;4915784;29;1330;-83
2022/10/07 04:31:17;;;;;;;;;;;;;;;20.68;33.05;98916.81;4900159;29;1340;-83
2022/10/07 04:33:45;;;;;;;;;;;;;;;20.66;32.78;98910.75;4915096;29;1918;-83
2022/10/07 04:36:14;;;;;;;;;;;;;;;21.01;32.84;98906.78;4900465;29;1258;-83
2022/10/07 04:38:49;;;;;;;;;;;;;;;21.07;32.93;98910.78;4914501;29;1162;-83
2022/10/07 04:41:16;;;;;;;;;;;;;;;21.30;32.33;98904.50;4895342;29;1478;-82
2022/10/07 04:43:42;;;;;;;;;;;;;;;21.14;32.45;98909.91;4880342;29;1296;-83
2022/10/07 04:46:12;;;;;;;;;;;;;;;20.92;32.87;98914.97;4895699;29;1288;-82
2022/10/07 04:48:42;;;;;;;;;;;;;;;20.84;32.71;98915.47;4896463;29;1319;-83
2022/10/07 04:51:08;;;;;;;;;;;;;;;20.80;32.79;98919.13;4896753;29;1177;-83
2022/10/07 04:53:35;;;;;;;;;;;;;;;20.58;33.16;98914.88;4880621;29;1911;-83
2022/10/07 04:56:01;;;;;;;;;;;;;;;20.71;32.75;98915.16;4881169;29;1245;-83
2022/10/07 04:58:27;;;;;;;;;;;;;;;20.60;33.15;98918.06;4880922;29;1402;-83
2022/10/07 05:00:53;;;;;;;;;;;;;;;20.62;33.04;98918.44;4880969;29;1122;-83
2022/10/07 05:03:21;;;;;;;;;;;;;;;20.88;32.82;98924.69;4896134;29;1398;-83
2022/10/07 05:05:48;;;;;;;;;;;;;;;21.03;33.47;98926.97;4895679;29;1150;-83
2022/10/07 05:11:54;;;;;;;;;;;;;;;21.02;32.96;98931.03;4887120;29;1143;-83
2022/10/07 05:14:21;;;;;;;;;;;;;;;20.68;33.12;98928.13;4914752;29;1969;-83
2022/10/07 05:16:48;;;;;;;;;;;;;;;20.73;33.17;98936.16;4899397;29;717;-83
2022/10/07 05:19:14;;;;;;;;;;;;;;;20.52;33.43;98941.94;4915224;29;1292;-83
2022/10/07 05:21:39;;;;;;;;;;;;;;;20.62;33.54;98934.63;4915437;29;1212;-82
2022/10/07 05:24:05;;;;;;;;;;;;;;;20.74;32.91;98932.09;4924674;29;1256;-83
2022/10/07 05:26:34;;;;;;;;;;;;;;;20.78;33.08;98949.84;4938429;29;1207;-82
2022/10/07 05:29:02;;;;;;;;;;;;;;;21.03;33.32;98948.81;4938687;29;1232;-83
2022/10/07 05:31:34;;;;;;;;;;;;;;;21.30;33.03;98935.66;4938418;29;1258;-83
2022/10/07 05:34:01;;;;;;;;;;;;;;;21.08;32.73;98942.69;4938247;29;1902;-83
2022/10/07 05:36:27;;;;;;;;;;;;;;;20.85;33.35;98948.19;4938257;29;1101;-83
2022/10/07 05:38:56;;;;;;;;;;;;;;;20.89;33.04;98946.94;4938251;29;1204;-83
2022/10/07 05:41:24;;;;;;;;;;;;;;;20.98;32.51;98952.88;4937988;29;1216;-83
2022/10/07 05:43:49;;;;;;;;;;;;;;;20.92;33.06;98956.59;4939225;29;732;-82
2022/10/07 05:46:19;;;;;;;;;;;;;;;20.88;33.24;98955.81;4937978;29;1243;-82
2022/10/07 05:48:52;;;;;;;;;;;;;;;20.73;33.02;98958.78;4938514;29;1066;-83
2022/10/07 05:51:21;;;;;;;;;;;;;;;20.93;33.20;98961.03;4938099;29;1238;-83
2022/10/07 05:53:47;;;;;;;;;;;;;;;21.02;33.62;98964.19;4911542;29;1906;-83
2022/10/07 05:56:14;;;;;;;;;;;;;;;21.36;32.64;98960.66;4911761;29;1118;-83
2022/10/07 05:58:39;;;;;;;;;;;;;;;21.22;32.68;98964.41;4895835;29;931;-83
2022/10/07 06:04:42;;;;;;;;;;;;;;;20.75;33.07;98962.00;4880678;29;701;-82
2022/10/07 06:07:09;;;;;;;;;;;;;;;20.78;32.97;98949.06;4911702;29;1086;-82
2022/10/07 06:15:08;;;;;;;;;;;;;;;20.89;32.97;98960.28;4908657;29;1977;-82
2022/10/07 06:17:35;;;;;;;;;;;;;;;21.12;33.63;98957.63;4883562;29;1368;-82
2022/10/07 06:20:04;;;;;;;;;;;;;;;21.26;33.23;98954.66;4914609;29;1134;-83
2022/10/07 06:22:29;;;;;;;;;;;;;;;20.93;33.36;98967.47;4915446;29;1275;-82
2022/10/07 06:24:57;;;;;;;;;;;;;;;20.74;33.60;98954.72;4923956;29;1052;-83
2022/10/07 06:27:23;;;;;;;;;;;;;;;21.04;32.82;98961.75;4941219;29;1224;-83
2022/10/07 06:29:49;;;;;;;;;;;;;;;20.80;32.99;98958.72;4941275;29;1358;-83
2022/10/07 06:32:15;;;;;;;;;;;;;;;20.92;32.97;98965.09;4940923;29;741;-82
2022/10/07 06:34:43;;;;;;;;;;;;;;;20.68;33.35;98964.88;4941377;29;1903;-82
2022/10/07 06:37:10;;;;;;;;;;;;;;;20.76;33.30;98968.44;4940900;29;1154;-83
2022/10/07 06:39:35;;;;;;;;;;;;;;;20.76;33.01;98969.25;4940684;29;1258;-82
2022/10/07 06:42:01;;;;;;;;;;;;;;;20.98;33.89;98974.72;4941355;29;1117;-83
2022/10/07 06:44:38;;;;;;;;;;;;;;;21.28;32.83;98966.34;4940439;29;1192;-83
2022/10/07 06:47:06;;;;;;;;;;;;;;;21.10;33.12;98965.75;4940666;29;1367;-82
2022/10/07 06:49:32;;;;;;;;;;;;;;;20.81;33.31;98963.16;4940611;29;1146;-82
2022/10/07 06:51:58;;;;;;;;;;;;;;;20.84;33.06;98970.00;4940489;29;1296;-82
2022/10/07 06:54:24;;;;;;;;;;;;;;;20.74;33.00;98960.38;4940309;29;1984;-83
2022/10/07 06:56:49;;;;;;;;;;;;;;;20.94;33.01;98979.63;4901717;29;1189;-83
2022/10/07 06:59:15;;;;;;;;;;;;;;;20.87;32.91;98971.19;4901319;29;1090;-82
2022/10/07 07:01:59;;;;;;;;;;;;;;;20.88;33.09;98976.44;4897431;29;1154;-82
2022/10/07 07:04:26;;;;;;;;;;;;;;;20.79;33.14;98967.63;4890212;29;1240;-83
2022/10/07 07:06:52;;;;;;;;;;;;;;;20.69;33.27;98968.50;4891879;29;1288;-83
2022/10/07 07:09:21;;;;;;;;;;;;;;;20.92;33.69;98971.53;4889091;29;1249;-83
2022/10/07 07:11:48;;;;;;;;;;;;;;;21.12;33.73;98968.94;4889801;29;1374;-83
2022/10/07 07:14:24;;;;;;;;;;;;;;;21.35;32.81;98964.69;4890946;29;1981;-82
2022/10/07 07:17:01;;;;;;;;;;;;;;;21.10;33.09;98965.75;4880470;29;1306;-83
2022/10/07 07:19:26;;;;;;;;;;;;;;;20.76;33.27;98969.25;4918469;29;1280;-83
2022/10/07 07:21:53;;;;;;;;;;;;;;;20.79;33.17;98962.78;4918253;29;1489;-83
2022/10/07 07:24:20;;;;;;;;;;;;;;;20.80;33.08;98964.38;4907808;29;1347;-83
2022/10/07 07:26:47;;;;;;;;;;;;;;;20.68;33.05;98956.41;4911918;29;1295;-83
2022/10/07 07:29:15;;;;;;;;;;;;;;;20.43;33.44;98955.75;4952764;28;1278;-84
2022/10/07 07:31:49;;;;;;;;;;;;;;;20.96;33.72;98960.19;4951442;29;1217;-83
2022/10/07 07:34:16;;;;;;;;;;;;;;;21.14;32.87;98962.84;4952841;29;2001;-84
2022/10/07 07:36:44;;;;;;;;;;;;;;;20.81;33.06;98951.84;4942661;29;1208;-83
2022/10/07 07:39:11;;;;;;;;;;;;;;;20.78;32.92;98952.69;4913498;29;1252;-84
2022/10/07 07:41:40;;;;;;;;;;;;;;;20.84;32.90;98957.91;4926394;29;1228;-83
2022/10/07 07:44:08;;;;;;;;;;;;;;;20.90;32.62;98953.38;4896970;29;1165;-83
2022/10/07 07:46:35;;;;;;;;;;;;;;;20.85;32.37;98945.34;4927959;29;1248;-83
2022/10/07 07:49:01;;;;;;;;;;;;;;;21.03;32.51;98945.97;4926447;29;1334;-82
2022/10/07 07:51:27;;;;;;;;;;;;;;;21.17;32.50;98947.88;4925343;29;1299;-82
2022/10/07 07:53:54;;;;;;;;;;;;;;;21.42;31.89;98947.66;4905913;29;1923;-82
2022/10/07 07:56:19;;;;;;;;;;;;;;;21.03;32.00;98949.59;4906247;29;1287;-83
2022/10/07 07:58:45;;;;;;;;;;;;;;;21.01;32.23;98939.94;4908933;29;1188;-83
2022/10/07 08:01:12;;;;;;;;;;;;;;;20.68;32.53;98944.28;4887123;29;1438;-82
2022/10/07 08:03:41;;;;;;;;;;;;;;;20.68;32.58;98936.59;4900419;29;1118;-83
2022/10/07 08:06:08;;;;;;;;;;;;;;;20.66;32.28;98936.19;4885450;29;1173;-83
2022/10/07 08:08:33;;;;;;;;;;;;;;;20.65;32.12;98934.59;4884371;29;1159;-83
2022/10/07 08:11:06;;;;;;;;;;;;;;;20.69;32.10;98929.72;4884838;29;1201;-83
2022/10/07 08:13:32;;;;;;;;;;;;;;;20.74;32.26;98932.09;4884953;29;1981;-83
2022/10/07 08:15:58;;;;;;;;;;;;;;;21.03;32.16;98932.63;4900385;29;1222;-83
2022/10/07 08:21:58;;;;;;;;;;;;;;;21.27;31.41;98933.63;4900149;29;634;-83
2022/10/07 08:24:26;;;;;;;;;;;;;;;20.77;32.04;98931.25;4888211;29;1171;-82
2022/10/07 08:26:52;;;;;;;;;;;;;;;20.80;32.18;98936.09;4903558;29;1207;-83
2022/10/07 08:32:52;;;;;;;;;;;;;;;20.60;32.35;98920.91;4918910;29;1974;-83
2022/10/07 08:35:18;;;;;;;;;;;;;;;20.61;32.01;98928.16;4902653;29;959;-83
2022/10/07 08:37:43;;;;;;;;;;;;;;;20.85;32.14;98925.56;4918936;29;815;-83
2022/10/07 08:40:12;;;;;;;;;;;;;;;21.17;31.29;98925.25;4902117;29;1335;-83
2022/10/07 08:42:38;;;;;;;;;;;;;;;21.08;31.29;98917.22;4902884;29;1216;-83
2022/10/07 08:45:07;;;;;;;;;;;;;;;20.56;32.37;98905.97;4898263;29;1280;-82
2022/10/07 08:47:38;;;;;;;;;;;;;;;20.79;32.10;98922.38;4864493;29;1003;-83
2022/10/07 08:50:08;;;;;;;;;;;;;;;20.87;31.80;98923.91;4865551;29;1131;-83
2022/10/07 08:52:37;;;;;;;;;;;;;;;20.68;31.83;98911.16;4881052;29;817;-83
2022/10/07 08:55:23;;;;;;;;;;;;;;;20.74;31.68;98903.81;4874419;29;1911;-83
2022/10/07 08:57:51;;;;;;;;;;;;;;;20.58;31.81;98906.38;4862347;29;1100;-82
2022/10/07 09:00:18;;;;;;;;;;;;;;;20.77;31.80;98908.63;4893940;29;1230;-82
2022/10/07 09:02:52;;;;;;;;;;;;;;;21.01;31.80;98908.81;4882281;29;1241;-82
2022/10/07 09:05:25;;;;;;;;;;;;;;;21.22;30.95;98905.78;4862171;29;1022;-83
2022/10/07 09:07:52;;;;;;;;;;;;;;;20.92;31.35;98903.63;4890152;29;1206;-82
2022/10/07 09:10:29;;;;;;;;;;;;;;;20.66;31.81;98896.59;4881972;29;1212;-82
2022/10/07 09:13:03;;;;;;;;;;;;;;;20.63;31.92;98886.16;4882156;29;1989;-82
2022/10/07 09:15:31;;;;;;;;;;;;;;;20.63;31.91;98891.81;4895697;29;1249;-82
2022/10/07 09:17:58;;;;;;;;;;;;;;;20.76;31.79;98911.88;4897651;29;1240;-83
2022/10/07 09:20:28;;;;;;;;;;;;;;;20.67;31.77;98906.69;4881982;29;1300;-83
2022/10/07 09:22:56;;;;;;;;;;;;;;;20.44;32.25;98892.31;4873981;29;1303;-83
2022/10/07 09:25:28;;;;;;;;;;;;;;;20.87;31.46;98900.47;4916126;29;1384;-83
2022/10/07 09:27:53;;;;;;;;;;;;;;;21.01;31.52;98894.69;4918074;29;936;-83
2022/10/07 09:30:19;;;;;;;;;;;;;;;21.25;30.89;98887.16;4918116;29;812;-83
2022/10/07 09:32:46;;;;;;;;;;;;;;;20.88;31.66;98885.09;4918169;29;744;-83
2022/10/07 09:35:12;;;;;;;;;;;;;;;20.95;31.57;98885.03;4931936;29;1911;-83
2022/10/07 09:37:43;;;;;;;;;;;;;;;20.92;31.36;98886.66;4955599;29;1238;-83
2022/10/07 09:40:22;;;;;;;;;;;;;;;20.78;31.71;98887.63;4953596;29;1137;-83
2022/10/07 09:42:48;;;;;;;;;;;;;;;20.56;32.19;98874.88;4924510;29;1240;-83
2022/10/07 09:45:32;;;;;;;;;;;;;;;20.70;31.50;98874.75;4920581;29;1264;-83
2022/10/07 09:47:58;;;;;;;;;;;;;;;20.79;31.51;98879.94;4936960;29;740;-83
2022/10/07 09:50:30;;;;;;;;;;;;;;;20.70;31.31;98874.75;4917993;29;857;-83
2022/10/07 09:52:55;;;;;;;;;;;;;;;21.03;31.49;98875.25;4921446;29;1903;-83
2022/10/07 09:55:36;;;;;;;;;;;;;;;21.23;30.85;98867.75;4890673;29;1214;-83
2022/10/07 09:58:03;;;;;;;;;;;;;;;21.04;31.18;98862.72;4887656;29;939;-83
2022/10/07 10:00:29;;;;;;;;;;;;;;;20.67;31.86;98863.47;4902572;29;1192;-83
2022/10/07 10:03:12;;;;;;;;;;;;;;;20.91;31.27;98867.28;4886920;29;963;-83
2022/10/07 10:05:38;;;;;;;;;;;;;;;20.75;31.57;98863.00;4902804;29;909;-83
2022/10/07 10:08:13;;;;;;;;;;;;;;;20.72;31.61;98854.53;4902394;29;1199;-83
2022/10/07 10:10:38;;;;;;;;;;;;;;;20.71;31.37;98852.94;4902396;29;1224;-82
2022/10/07 10:13:04;;;;;;;;;;;;;;;20.94;31.15;98846.66;4886793;29;1902;-83
2022/10/07 10:15:40;;;;;;;;;;;;;;;21.29;30.63;98851.91;4871099;29;1490;-83
2022/10/07 10:18:24;;;;;;;;;;;;;;;21.27;30.53;98843.03;4883732;29;1162;-82
2022/10/07 10:20:49;;;;;;;;;;;;;;;21.03;30.93;98836.44;4888045;29;889;-82
2022/10/07 10:23:25;;;;;;;;;;;;;;;20.87;31.25;98830.53;4901781;29;839;-82
2022/10/07 10:29:03;;;;;;;;;;;;;;;20.74;31.64;98829.50;4902328;29;810;-82
2022/10/07 10:31:46;;;;;;;;;;;;;;;20.94;31.42;98832.53;4902302;29;733;-82
2022/10/07 10:34:12;;;;;;;;;;;;;;;21.16;30.75;98816.09;4901957;29;1981;-83
2022/10/07 10:36:38;;;;;;;;;;;;;;;21.24;30.68;98812.75;4902021;29;749;-82
2022/10/07 10:39:23;;;;;;;;;;;;;;;20.90;31.17;98809.91;4901901;29;837;-82
2022/10/07 10:41:51;;;;;;;;;;;;;;;20.83;31.53;98804.34;4902040;29;1035;-82
2022/10/07 10:44:18;;;;;;;;;;;;;;;20.81;31.34;98801.91;4901943;29;757;-82
2022/10/07 10:46:50;;;;;;;;;;;;;;;20.60;31.90;98799.31;4901803;29;865;-83
2022/10/07 10:49:19;;;;;;;;;;;;;;;20.59;31.58;98789.22;4901815;29;788;-82
2022/10/07 10:51:54;;;;;;;;;;;;;;;20.66;31.76;98788.34;4901866;29;827;-82
2022/10/07 10:54:26;;;;;;;;;;;;;;;21.19;30.67;98787.75;4922056;29;1974;-83
2022/10/07 10:57:11;;;;;;;;;;;;;;;21.12;30.86;98782.16;4922038;29;1231;-83
2022/10/07 10:59:40;;;;;;;;;;;;;;;21.05;31.10;98785.09;4922318;29;843;-83
2022/10/07 11:02:08;;;;;;;;;;;;;;;20.97;31.06;98773.03;4922004;29;761;-83
2022/10/07 11:04:34;;;;;;;;;;;;;;;20.77;31.34;98772.88;4922435;29;741;-82
2022/10/07 11:07:00;;;;;;;;;;;;;;;20.84;31.09;98776.88;4922583;29;791;-83
2022/10/07 11:09:29;;;;;;;;;;;;;;;20.68;31.35;98763.31;4921387;29;755;-83
2022/10/07 11:11:54;;;;;;;;;;;;;;;20.79;31.35;98781.75;4921185;29;1209;-82
2022/10/07 11:14:21;;;;;;;;;;;;;;;20.57;31.46;98769.03;4921092;29;1910;-82
2022/10/07 11:16:50;;;;;;;;;;;;;;;20.72;31.34;98781.00;4901747;29;1110;-82
2022/10/07 11:19:31;;;;;;;;;;;;;;;20.81;31.37;98767.97;4901179;29;1126;-82
2022/10/07 11:21:57;;;;;;;;;;;;;;;21.04;30.99;98763.69;4900874;29;1203;-82
2022/10/07 11:24:25;;;;;;;;;;;;;;;21.25;30.75;98746.44;4900759;29;760;-82
2022/10/07 11:26:56;;;;;;;;;;;;;;;21.07;30.71;98751.50;4901225;29;819;-82
2022/10/07 11:29:22;;;;;;;;;;;;;;;20.79;31.30;98752.66;4900580;29;709;-82
2022/10/07 11:31:55;;;;;;;;;;;;;;;20.70;31.27;98764.47;4905830;29;1162;-82
2022/10/07 11:34:22;;;;;;;;;;;;;;;20.60;31.75;98773.88;4917808;29;1891;-82
2022/10/07 11:36:51;;;;;;;;;;;;;;;20.62;31.54;98754.44;4917980;29;1354;-82
2022/10/07 11:39:17;;;;;;;;;;;;;;;20.66;31.18;98749.56;4918336;29;1256;-81
2022/10/07 11:41:46;;;;;;;;;;;;;;;21.06;30.75;98755.56;4919138;29;1240;-83
2022/10/07 11:44:15;;;;;;;;;;;;;;;21.35;30.23;98749.56;4919934;29;728;-83
2022/10/07 11:46:41;;;;;;;;;;;;;;;21.09;30.61;98754.75;4921712;29;963;-83
2022/10/07 11:49:11;;;;;;;;;;;;;;;21.06;30.66;98749.91;4942686;29;772;-82
2022/10/07 11:51:44;;;;;;;;;;;;;;;20.63;31.56;98744.75;4942835;29;720;-82
2022/10/07 11:54:11;;;;;;;;;;;;;;;20.65;31.16;98736.66;4942710;29;1980;-82
2022/10/07 11:56:38;;;;;;;;;;;;;;;20.69;31.37;98740.25;4942852;29;697;-82
2022/10/07 11:59:04;;;;;;;;;;;;;;;21.17;30.72;98744.13;4942388;29;1260;-82
2022/10/07 12:01:45;;;;;;;;;;;;;;;21.27;30.28;98735.47;4942658;29;815;-82
2022/10/07 12:04:20;;;;;;;;;;;;;;;21.04;30.41;98729.75;4959540;29;787;-83
2022/10/07 12:07:04;;;;;;;;;;;;;;;20.92;30.97;98733.09;4942823;29;1017;-82
2022/10/07 12:09:48;;;;;;;;;;;;;;;20.84;30.97;98738.06;4942907;29;1327;-83
2022/10/07 12:12:13;;;;;;;;;;;;;;;21.05;30.77;98731.34;4959123;29;1067;-83
2022/10/07 12:14:40;;;;;;;;;;;;;;;21.01;30.47;98724.91;4942116;29;1918;-82
2022/10/07 12:17:18;;;;;;;;;;;;;;;20.72;30.90;98725.25;4942628;29;1134;-82
2022/10/07 12:19:44;;;;;;;;;;;;;;;20.69;31.29;98719.66;4942049;29;853;-83
2022/10/07 12:22:09;;;;;;;;;;;;;;;21.16;30.46;98726.34;4942420;29;815;-83
2022/10/07 12:24:35;;;;;;;;;;;;;;;21.18;30.43;98723.06;4959392;29;725;-82
2022/10/07 12:27:14;;;;;;;;;;;;;;;21.19;30.10;98722.66;4942604;29;763;-83
2022/10/07 12:33:36;;;;;;;;;;;;;;;20.65;31.41;98721.72;4959221;29;1964;-82
2022/10/07 12:36:24;;;;;;;;;;;;;;;20.55;31.48;98714.94;4941221;29;1201;-82
2022/10/07 12:38:59;;;;;;;;;;;;;;;20.74;30.92;98728.47;4899695;29;1222;-83
2022/10/07 12:41:37;;;;;;;;;;;;;;;20.80;30.87;98728.81;4884027;29;1049;-82
2022/10/07 12:44:16;;;;;;;;;;;;;;;20.76;30.91;98726.00;4884159;29;1185;-82
2022/10/07 12:46:48;;;;;;;;;;;;;;;21.06;30.74;98722.41;4884607;29;1244;-83
2022/10/07 12:49:16;;;;;;;;;;;;;;;21.23;30.28;98709.25;4883920;29;925;-83
2022/10/07 12:51:42;;;;;;;;;;;;;;;21.20;30.11;98715.78;4899708;29;765;-82
2022/10/07 12:54:13;;;;;;;;;;;;;;;21.04;30.32;98724.09;4884147;29;1903;-83
2022/10/07 12:56:40;;;;;;;;;;;;;;;20.79;30.94;98713.88;4883844;29;1205;-82
2022/10/07 13:02:19;;;;;;;;;;;;;;;20.82;31.08;98712.22;4884067;29;1200;-82
2022/10/07 13:05:03;;;;;;;;;;;;;;;20.75;30.84;98706.66;4899090;29;956;-82
2022/10/07 13:07:28;;;;;;;;;;;;;;;20.70;30.99;98709.94;4899460;29;742;-82
2022/10/07 13:09:54;;;;;;;;;;;;;;;20.91;30.76;98703.22;4883619;29;1085;-82
2022/10/07 13:12:22;;;;;;;;;;;;;;;21.17;30.12;98699.63;4899659;29;799;-82
2022/10/07 13:14:54;;;;;;;;;;;;;;;21.21;29.95;98697.56;4903089;29;1903;-82
2022/10/07 13:17:25;;;;;;;;;;;;;;;20.86;30.73;98700.84;4941673;29;791;-82
2022/10/07 13:20:09;;;;;;;;;;;;;;;20.72;30.80;98696.16;4941937;29;1109;-82
2022/10/07 13:22:35;;;;;;;;;;;;;;;20.84;30.75;98703.31;4941517;29;1274;-82
2022/10/07 13:25:00;;;;;;;;;;;;;;;20.94;30.59;98696.72;4941581;28;760;-83
2022/10/07 13:27:27;;;;;;;;;;;;;;;20.66;30.82;98687.34;4945092;29;760;-82
2022/10/07 13:29:52;;;;;;;;;;;;;;;20.57;31.32;98689.06;4945466;29;771;-82
2022/10/07 13:32:36;;;;;;;;;;;;;;;21.00;30.46;98684.50;4945610;29;1333;-83
2022/10/07 13:35:31;;;;;;;;;;;;;;;21.28;30.02;98693.81;4962245;29;1967;-82
2022/10/07 13:37:57;;;;;;;;;;;;;;;21.02;30.37;98689.72;4887488;29;1054;-82
2022/10/07 13:40:27;;;;;;;;;;;;;;;20.65;31.12;98691.41;4887504;29;733;-83
2022/10/07 13:42:57;;;;;;;;;;;;;;;20.57;31.24;98686.25;4887302;29;945;-82
2022/10/07 13:45:23;;;;;;;;;;;;;;;20.56;31.09;98676.97;4902866;29;792;-82
2022/10/07 13:47:48;;;;;;;;;;;;;;;20.80;30.76;98689.22;4887325;29;1070;-82
2022/10/07 13:50:26;;;;;;;;;;;;;;;20.72;30.79;98685.66;4902808;29;796;-83
2022/10/07 13:52:54;;;;;;;;;;;;;;;20.74;30.94;98677.56;4887199;29;745;-82
2022/10/07 13:55:28;;;;;;;;;;;;;;;21.04;30.49;98678.81;4871817;29;1970;-82
2022/10/07 13:57:57;;;;;;;;;;;;;;;21.32;30.11;98678.41;4887457;29;825;-82